sensor_id;sensor_type;location;lat;lon;timestamp;temperature;humidity
11079;DHT22;5592;49.234;7.268;2023-04-15T00:00:33;1.30;99.90
11079;DHT22;5592;49.234;7.268;2023-04-15T00:02:59;1.40;99.90
11079;DHT22;5592;49.234;7.268;2023-04-15T00:05:28;1.30;99.90
11079;DHT22;5592;49.234;7.268;2023-04-15T00:07:54;1.30;99.90
11079;DHT22;5592;49.234;7.268;2023-04-15T00:10:19;1.20;99.90
11079;DHT22;5592;49.234;7.268;2023-04-15T00:12:45;1.20;99.90
11079;DHT22;5592;49.234;7.268;2023-04-15T00:15:11;1.30;99.90
11079;DHT22;5592;49.234;7.268;2023-04-15T00:17:37;1.20;99.90
11079;DHT22;5592;49.234;7.268;2023-04-15T00:20:04;1.20;99.90
11079;DHT22;5592;49.234;7.268;2023-04-15T00:22:31;1.30;99.90
11079;DHT22;5592;49.234;7.268;2023-04-15T00:24:56;1.30;99.90
11079;DHT22;5592;49.234;7.268;2023-04-15T00:27:22;1.20;99.90
11079;DHT22;5592;49.234;7.268;2023-04-15T00:29:48;1.30;99.90
11079;DHT22;5592;49.234;7.268;2023-04-15T00:32:13;1.30;99.90
11079;DHT22;5592;49.234;7.268;2023-04-15T00:34:39;1.30;99.90
11079;DHT22;5592;49.234;7.268;2023-04-15T00:37:05;1.20;99.90
11079;DHT22;5592;49.234;7.268;2023-04-15T00:39:30;1.20;99.90
11079;DHT22;5592;49.234;7.268;2023-04-15T00:41:57;1.20;99.90
11079;DHT22;5592;49.234;7.268;2023-04-15T00:44:22;1.00;99.90
11079;DHT22;5592;49.234;7.268;2023-04-15T00:46:50;0.90;99.90
11079;DHT22;5592;49.234;7.268;2023-04-15T00:49:16;0.80;99.90
11079;DHT22;5592;49.234;7.268;2023-04-15T00:51:42;0.70;99.90
11079;DHT22;5592;49.234;7.268;2023-04-15T00:54:09;0.70;99.90
11079;DHT22;5592;49.234;7.268;2023-04-15T00:56:36;0.80;99.90
11079;DHT22;5592;49.234;7.268;2023-04-15T00:59:06;0.80;99.90
11079;DHT22;5592;49.234;7.268;2023-04-15T01:01:36;0.70;99.90
11079;DHT22;5592;49.234;7.268;2023-04-15T01:04:03;0.60;99.90
11079;DHT22;5592;49.234;7.268;2023-04-15T01:06:29;0.50;99.90
11079;DHT22;5592;49.234;7.268;2023-04-15T01:08:56;0.50;99.90
11079;DHT22;5592;49.234;7.268;2023-04-15T01:11:22;0.50;99.90
11079;DHT22;5592;49.234;7.268;2023-04-15T01:13:49;0.40;99.90
11079;DHT22;5592;49.234;7.268;2023-04-15T01:16:15;0.30;99.90
11079;DHT22;5592;49.234;7.268;2023-04-15T01:18:42;0.30;99.90
11079;DHT22;5592;49.234;7.268;2023-04-15T01:21:07;0.30;99.90
11079;DHT22;5592;49.234;7.268;2023-04-15T01:23:35;0.30;99.90
11079;DHT22;5592;49.234;7.268;2023-04-15T01:26:03;0.40;99.90
11079;DHT22;5592;49.234;7.268;2023-04-15T01:28:29;0.40;99.90
11079;DHT22;5592;49.234;7.268;2023-04-15T01:31:10;0.30;99.90
11079;DHT22;5592;49.234;7.268;2023-04-15T01:33:37;0.20;99.90
11079;DHT22;5592;49.234;7.268;2023-04-15T01:36:03;0.20;99.90
11079;DHT22;5592;49.234;7.268;2023-04-15T01:38:30;0.10;99.90
11079;DHT22;5592;49.234;7.268;2023-04-15T01:40:56;0.10;99.90
11079;DHT22;5592;49.234;7.268;2023-04-15T01:43:22;0.00;99.90
11079;DHT22;5592;49.234;7.268;2023-04-15T01:45:48;0.00;99.90
11079;DHT22;5592;49.234;7.268;2023-04-15T01:48:13;0.00;99.90
11079;DHT22;5592;49.234;7.268;2023-04-15T01:50:39;0.10;99.90
11079;DHT22;5592;49.234;7.268;2023-04-15T01:53:04;0.10;99.90
11079;DHT22;5592;49.234;7.268;2023-04-15T01:55:30;0.10;99.90
11079;DHT22;5592;49.234;7.268;2023-04-15T01:57:56;0.10;99.90
11079;DHT22;5592;49.234;7.268;2023-04-15T02:00:22;0.10;99.90
11079;DHT22;5592;49.234;7.268;2023-04-15T02:02:48;0.00;99.90
11079;DHT22;5592;49.234;7.268;2023-04-15T02:05:14;-0.10;99.90
11079;DHT22;5592;49.234;7.268;2023-04-15T02:07:41;-0.10;99.90
11079;DHT22;5592;49.234;7.268;2023-04-15T02:10:08;-0.20;99.90
11079;DHT22;5592;49.234;7.268;2023-04-15T02:12:35;-0.30;99.90
11079;DHT22;5592;49.234;7.268;2023-04-15T02:15:01;-0.30;99.90
11079;DHT22;5592;49.234;7.268;2023-04-15T02:17:26;-0.40;99.90
11079;DHT22;5592;49.234;7.268;2023-04-15T02:19:52;-0.40;99.90
11079;DHT22;5592;49.234;7.268;2023-04-15T02:22:19;-0.50;99.90
11079;DHT22;5592;49.234;7.268;2023-04-15T02:24:45;-0.50;99.90
11079;DHT22;5592;49.234;7.268;2023-04-15T02:27:15;-0.50;99.90
11079;DHT22;5592;49.234;7.268;2023-04-15T02:29:43;-0.50;99.90
11079;DHT22;5592;49.234;7.268;2023-04-15T02:32:09;-0.60;99.90
11079;DHT22;5592;49.234;7.268;2023-04-15T02:34:36;-0.60;99.90
11079;DHT22;5592;49.234;7.268;2023-04-15T02:37:03;-0.60;99.90
11079;DHT22;5592;49.234;7.268;2023-04-15T02:39:29;-0.60;99.90
11079;DHT22;5592;49.234;7.268;2023-04-15T02:41:55;-0.60;99.90
11079;DHT22;5592;49.234;7.268;2023-04-15T02:44:23;-0.50;99.90
11079;DHT22;5592;49.234;7.268;2023-04-15T02:46:49;-0.40;99.90
11079;DHT22;5592;49.234;7.268;2023-04-15T02:49:17;-0.40;99.90
11079;DHT22;5592;49.234;7.268;2023-04-15T02:51:43;-0.50;99.90
11079;DHT22;5592;49.234;7.268;2023-04-15T02:54:12;-0.50;99.90
11079;DHT22;5592;49.234;7.268;2023-04-15T02:56:37;-0.50;99.90
11079;DHT22;5592;49.234;7.268;2023-04-15T02:59:03;-0.60;99.90
11079;DHT22;5592;49.234;7.268;2023-04-15T03:01:29;-0.60;99.90
11079;DHT22;5592;49.234;7.268;2023-04-15T03:03:56;-0.70;99.90
11079;DHT22;5592;49.234;7.268;2023-04-15T03:06:21;-0.60;99.90
11079;DHT22;5592;49.234;7.268;2023-04-15T03:08:49;-0.40;99.90
11079;DHT22;5592;49.234;7.268;2023-04-15T03:11:15;-0.30;99.90
11079;DHT22;5592;49.234;7.268;2023-04-15T03:13:41;-0.30;99.90
11079;DHT22;5592;49.234;7.268;2023-04-15T03:16:08;-0.40;99.90
11079;DHT22;5592;49.234;7.268;2023-04-15T03:18:33;-0.50;99.90
11079;DHT22;5592;49.234;7.268;2023-04-15T03:20:59;-0.60;99.90
11079;DHT22;5592;49.234;7.268;2023-04-15T03:23:24;-0.60;99.90
11079;DHT22;5592;49.234;7.268;2023-04-15T03:25:50;-0.70;99.90
11079;DHT22;5592;49.234;7.268;2023-04-15T03:28:16;-0.70;99.90
11079;DHT22;5592;49.234;7.268;2023-04-15T03:30:41;-0.60;99.90
11079;DHT22;5592;49.234;7.268;2023-04-15T03:33:07;-0.60;99.90
11079;DHT22;5592;49.234;7.268;2023-04-15T03:35:33;-0.70;99.90
11079;DHT22;5592;49.234;7.268;2023-04-15T03:37:59;-0.60;99.90
11079;DHT22;5592;49.234;7.268;2023-04-15T03:40:24;-0.60;99.90
11079;DHT22;5592;49.234;7.268;2023-04-15T03:42:50;-0.50;99.90
11079;DHT22;5592;49.234;7.268;2023-04-15T03:45:15;-0.50;99.90
11079;DHT22;5592;49.234;7.268;2023-04-15T03:47:41;-0.50;99.90
11079;DHT22;5592;49.234;7.268;2023-04-15T03:50:07;-0.40;99.90
11079;DHT22;5592;49.234;7.268;2023-04-15T03:52:32;-0.40;99.90
11079;DHT22;5592;49.234;7.268;2023-04-15T03:54:58;-0.40;99.90
11079;DHT22;5592;49.234;7.268;2023-04-15T03:57:24;-0.30;99.90
11079;DHT22;5592;49.234;7.268;2023-04-15T03:59:51;-0.30;99.90
11079;DHT22;5592;49.234;7.268;2023-04-15T04:02:16;-0.30;99.90
11079;DHT22;5592;49.234;7.268;2023-04-15T04:04:42;-0.20;99.90
11079;DHT22;5592;49.234;7.268;2023-04-15T04:07:08;-0.20;99.90
11079;DHT22;5592;49.234;7.268;2023-04-15T04:09:33;-0.10;99.90
11079;DHT22;5592;49.234;7.268;2023-04-15T04:11:59;0.00;99.90
11079;DHT22;5592;49.234;7.268;2023-04-15T04:14:25;0.10;99.90
11079;DHT22;5592;49.234;7.268;2023-04-15T04:16:54;0.10;99.90
11079;DHT22;5592;49.234;7.268;2023-04-15T04:19:20;0.10;99.90
11079;DHT22;5592;49.234;7.268;2023-04-15T04:21:45;0.30;99.90
11079;DHT22;5592;49.234;7.268;2023-04-15T04:24:11;0.40;99.90
11079;DHT22;5592;49.234;7.268;2023-04-15T04:26:36;0.40;99.90
11079;DHT22;5592;49.234;7.268;2023-04-15T04:29:02;0.40;99.90
11079;DHT22;5592;49.234;7.268;2023-04-15T04:31:27;0.50;99.90
11079;DHT22;5592;49.234;7.268;2023-04-15T04:33:53;0.50;99.90
11079;DHT22;5592;49.234;7.268;2023-04-15T04:36:18;0.50;99.90
11079;DHT22;5592;49.234;7.268;2023-04-15T04:38:44;0.50;99.90
11079;DHT22;5592;49.234;7.268;2023-04-15T04:41:10;0.60;99.90
11079;DHT22;5592;49.234;7.268;2023-04-15T04:43:35;0.60;99.90
11079;DHT22;5592;49.234;7.268;2023-04-15T04:46:01;0.60;99.90
11079;DHT22;5592;49.234;7.268;2023-04-15T04:48:26;0.60;99.90
11079;DHT22;5592;49.234;7.268;2023-04-15T04:50:52;0.70;99.90
11079;DHT22;5592;49.234;7.268;2023-04-15T04:53:18;0.90;99.90
11079;DHT22;5592;49.234;7.268;2023-04-15T04:55:43;1.00;99.90
11079;DHT22;5592;49.234;7.268;2023-04-15T04:58:09;1.20;99.90
11079;DHT22;5592;49.234;7.268;2023-04-15T05:00:34;1.20;99.90
11079;DHT22;5592;49.234;7.268;2023-04-15T05:03:02;1.30;99.90
11079;DHT22;5592;49.234;7.268;2023-04-15T05:05:27;1.40;99.90
11079;DHT22;5592;49.234;7.268;2023-04-15T05:07:53;1.50;99.90
11079;DHT22;5592;49.234;7.268;2023-04-15T05:10:18;1.70;99.90
11079;DHT22;5592;49.234;7.268;2023-04-15T05:12:44;1.90;99.90
11079;DHT22;5592;49.234;7.268;2023-04-15T05:15:10;2.10;99.90
11079;DHT22;5592;49.234;7.268;2023-04-15T05:17:35;2.40;99.90
11079;DHT22;5592;49.234;7.268;2023-04-15T05:20:01;2.50;99.90
11079;DHT22;5592;49.234;7.268;2023-04-15T05:22:28;2.60;99.90
11079;DHT22;5592;49.234;7.268;2023-04-15T05:24:53;2.70;99.90
11079;DHT22;5592;49.234;7.268;2023-04-15T05:27:19;2.80;99.90
11079;DHT22;5592;49.234;7.268;2023-04-15T05:29:45;2.90;99.90
11079;DHT22;5592;49.234;7.268;2023-04-15T05:32:11;3.00;99.90
11079;DHT22;5592;49.234;7.268;2023-04-15T05:34:36;3.00;99.90
11079;DHT22;5592;49.234;7.268;2023-04-15T05:37:02;3.00;99.90
11079;DHT22;5592;49.234;7.268;2023-04-15T05:39:27;3.10;99.90
11079;DHT22;5592;49.234;7.268;2023-04-15T05:41:53;3.40;99.90
11079;DHT22;5592;49.234;7.268;2023-04-15T05:44:18;3.80;99.90
11079;DHT22;5592;49.234;7.268;2023-04-15T05:46:44;4.30;99.90
11079;DHT22;5592;49.234;7.268;2023-04-15T05:49:09;4.80;99.90
11079;DHT22;5592;49.234;7.268;2023-04-15T05:51:35;5.30;99.90
11079;DHT22;5592;49.234;7.268;2023-04-15T05:54:01;5.80;99.90
11079;DHT22;5592;49.234;7.268;2023-04-15T05:56:26;6.30;99.90
11079;DHT22;5592;49.234;7.268;2023-04-15T05:58:52;6.70;99.90
11079;DHT22;5592;49.234;7.268;2023-04-15T06:01:18;7.20;99.90
11079;DHT22;5592;49.234;7.268;2023-04-15T06:03:43;7.50;99.90
11079;DHT22;5592;49.234;7.268;2023-04-15T06:06:09;7.80;99.90
11079;DHT22;5592;49.234;7.268;2023-04-15T06:08:34;8.10;99.90
11079;DHT22;5592;49.234;7.268;2023-04-15T06:11:00;8.50;99.90
11079;DHT22;5592;49.234;7.268;2023-04-15T06:13:26;8.70;99.90
11079;DHT22;5592;49.234;7.268;2023-04-15T06:15:52;9.30;99.90
11079;DHT22;5592;49.234;7.268;2023-04-15T06:18:18;10.00;99.90
11079;DHT22;5592;49.234;7.268;2023-04-15T06:20:45;10.90;99.90
11079;DHT22;5592;49.234;7.268;2023-04-15T06:23:11;11.60;99.90
11079;DHT22;5592;49.234;7.268;2023-04-15T06:25:36;12.70;99.90
11079;DHT22;5592;49.234;7.268;2023-04-15T06:28:02;13.70;99.90
11079;DHT22;5592;49.234;7.268;2023-04-15T06:30:27;14.90;99.90
11079;DHT22;5592;49.234;7.268;2023-04-15T06:32:54;15.80;99.90
11079;DHT22;5592;49.234;7.268;2023-04-15T06:35:20;16.40;99.90
11079;DHT22;5592;49.234;7.268;2023-04-15T06:37:46;17.00;99.90
11079;DHT22;5592;49.234;7.268;2023-04-15T06:40:12;17.40;99.90
11079;DHT22;5592;49.234;7.268;2023-04-15T06:42:37;17.50;99.90
11079;DHT22;5592;49.234;7.268;2023-04-15T06:45:03;18.40;99.90
11079;DHT22;5592;49.234;7.268;2023-04-15T06:47:30;19.20;99.90
11079;DHT22;5592;49.234;7.268;2023-04-15T06:49:55;19.90;99.90
11079;DHT22;5592;49.234;7.268;2023-04-15T06:52:21;20.40;97.10
11079;DHT22;5592;49.234;7.268;2023-04-15T06:54:46;20.20;95.20
11079;DHT22;5592;49.234;7.268;2023-04-15T06:57:12;20.20;95.90
11079;DHT22;5592;49.234;7.268;2023-04-15T06:59:37;19.80;95.80
11079;DHT22;5592;49.234;7.268;2023-04-15T07:02:03;19.60;97.90
11079;DHT22;5592;49.234;7.268;2023-04-15T07:04:29;20.00;98.20
11079;DHT22;5592;49.234;7.268;2023-04-15T07:06:54;20.80;97.60
11079;DHT22;5592;49.234;7.268;2023-04-15T07:09:22;21.80;95.30
11079;DHT22;5592;49.234;7.268;2023-04-15T07:11:48;22.60;93.20
11079;DHT22;5592;49.234;7.268;2023-04-15T07:14:13;23.60;89.70
11079;DHT22;5592;49.234;7.268;2023-04-15T07:16:39;24.40;87.00
11079;DHT22;5592;49.234;7.268;2023-04-15T07:19:05;24.90;80.50
11079;DHT22;5592;49.234;7.268;2023-04-15T07:21:30;25.10;80.60
11079;DHT22;5592;49.234;7.268;2023-04-15T07:23:56;25.40;82.40
11079;DHT22;5592;49.234;7.268;2023-04-15T07:26:23;25.70;77.30
11079;DHT22;5592;49.234;7.268;2023-04-15T07:28:49;26.20;73.00
11079;DHT22;5592;49.234;7.268;2023-04-15T07:31:14;26.60;74.90
11079;DHT22;5592;49.234;7.268;2023-04-15T07:33:41;26.80;71.00
11079;DHT22;5592;49.234;7.268;2023-04-15T07:36:06;26.80;68.40
11079;DHT22;5592;49.234;7.268;2023-04-15T07:38:32;26.20;66.00
11079;DHT22;5592;49.234;7.268;2023-04-15T07:40:57;25.90;66.50
11079;DHT22;5592;49.234;7.268;2023-04-15T07:43:23;26.00;66.30
11079;DHT22;5592;49.234;7.268;2023-04-15T07:45:49;25.80;64.80
11079;DHT22;5592;49.234;7.268;2023-04-15T07:48:14;26.30;62.00
11079;DHT22;5592;49.234;7.268;2023-04-15T07:50:40;25.90;62.70
11079;DHT22;5592;49.234;7.268;2023-04-15T07:53:06;26.00;62.00
11079;DHT22;5592;49.234;7.268;2023-04-15T07:55:31;26.20;59.90
11079;DHT22;5592;49.234;7.268;2023-04-15T07:57:57;25.60;60.60
11079;DHT22;5592;49.234;7.268;2023-04-15T08:00:23;25.70;59.70
11079;DHT22;5592;49.234;7.268;2023-04-15T08:02:48;26.60;59.80
11079;DHT22;5592;49.234;7.268;2023-04-15T08:05:14;27.00;59.80
11079;DHT22;5592;49.234;7.268;2023-04-15T08:07:40;27.10;58.70
11079;DHT22;5592;49.234;7.268;2023-04-15T08:10:06;27.30;57.50
11079;DHT22;5592;49.234;7.268;2023-04-15T08:12:32;27.40;58.00
11079;DHT22;5592;49.234;7.268;2023-04-15T08:14:59;27.40;60.00
11079;DHT22;5592;49.234;7.268;2023-04-15T08:17:27;27.70;57.90
11079;DHT22;5592;49.234;7.268;2023-04-15T08:19:53;27.60;57.10
11079;DHT22;5592;49.234;7.268;2023-04-15T08:22:18;27.50;56.40
11079;DHT22;5592;49.234;7.268;2023-04-15T08:24:44;27.60;57.20
11079;DHT22;5592;49.234;7.268;2023-04-15T08:27:10;27.90;59.00
11079;DHT22;5592;49.234;7.268;2023-04-15T08:29:35;28.20;58.10
11079;DHT22;5592;49.234;7.268;2023-04-15T08:32:01;28.00;55.60
11079;DHT22;5592;49.234;7.268;2023-04-15T08:34:27;28.70;56.50
11079;DHT22;5592;49.234;7.268;2023-04-15T08:36:52;29.70;53.90
11079;DHT22;5592;49.234;7.268;2023-04-15T08:39:18;30.40;53.50
11079;DHT22;5592;49.234;7.268;2023-04-15T08:41:48;30.10;53.10
11079;DHT22;5592;49.234;7.268;2023-04-15T08:44:17;29.70;53.40
11079;DHT22;5592;49.234;7.268;2023-04-15T08:46:42;29.20;53.20
11079;DHT22;5592;49.234;7.268;2023-04-15T08:49:10;28.80;52.20
11079;DHT22;5592;49.234;7.268;2023-04-15T08:51:39;27.70;53.80
11079;DHT22;5592;49.234;7.268;2023-04-15T08:54:04;27.20;54.50
11079;DHT22;5592;49.234;7.268;2023-04-15T08:56:31;26.30;53.80
11079;DHT22;5592;49.234;7.268;2023-04-15T08:58:58;26.70;55.60
11079;DHT22;5592;49.234;7.268;2023-04-15T09:01:24;26.90;54.90
11079;DHT22;5592;49.234;7.268;2023-04-15T09:03:51;26.90;56.20
11079;DHT22;5592;49.234;7.268;2023-04-15T09:06:19;26.80;54.70
11079;DHT22;5592;49.234;7.268;2023-04-15T09:08:45;26.50;54.50
11079;DHT22;5592;49.234;7.268;2023-04-15T09:11:11;26.80;55.00
11079;DHT22;5592;49.234;7.268;2023-04-15T09:13:36;26.40;55.20
11079;DHT22;5592;49.234;7.268;2023-04-15T09:16:04;26.50;54.30
11079;DHT22;5592;49.234;7.268;2023-04-15T09:18:31;26.70;57.30
11079;DHT22;5592;49.234;7.268;2023-04-15T09:21:16;26.60;54.60
11079;DHT22;5592;49.234;7.268;2023-04-15T09:24:00;26.20;56.30
11079;DHT22;5592;49.234;7.268;2023-04-15T09:26:30;26.20;56.60
11079;DHT22;5592;49.234;7.268;2023-04-15T09:29:03;25.80;54.00
11079;DHT22;5592;49.234;7.268;2023-04-15T09:31:29;26.20;54.10
11079;DHT22;5592;49.234;7.268;2023-04-15T09:33:55;26.80;50.40
11079;DHT22;5592;49.234;7.268;2023-04-15T09:36:21;27.00;55.60
11079;DHT22;5592;49.234;7.268;2023-04-15T09:38:55;25.90;51.00
11079;DHT22;5592;49.234;7.268;2023-04-15T09:41:21;25.70;54.20
11079;DHT22;5592;49.234;7.268;2023-04-15T09:43:47;25.20;50.30
11079;DHT22;5592;49.234;7.268;2023-04-15T09:46:13;25.60;50.90
11079;DHT22;5592;49.234;7.268;2023-04-15T09:48:41;26.20;54.10
11079;DHT22;5592;49.234;7.268;2023-04-15T09:51:07;27.20;48.30
11079;DHT22;5592;49.234;7.268;2023-04-15T09:53:34;27.50;49.10
11079;DHT22;5592;49.234;7.268;2023-04-15T09:56:00;26.40;49.00
11079;DHT22;5592;49.234;7.268;2023-04-15T09:58:31;25.00;48.20
11079;DHT22;5592;49.234;7.268;2023-04-15T10:00:59;24.40;48.20
11079;DHT22;5592;49.234;7.268;2023-04-15T10:03:31;24.70;50.70
11079;DHT22;5592;49.234;7.268;2023-04-15T10:05:58;25.10;48.60
11079;DHT22;5592;49.234;7.268;2023-04-15T10:08:27;25.60;47.10
11079;DHT22;5592;49.234;7.268;2023-04-15T10:10:53;26.00;43.80
11079;DHT22;5592;49.234;7.268;2023-04-15T10:13:24;26.60;48.90
11079;DHT22;5592;49.234;7.268;2023-04-15T10:16:09;25.30;42.70
11079;DHT22;5592;49.234;7.268;2023-04-15T10:18:37;24.10;46.40
11079;DHT22;5592;49.234;7.268;2023-04-15T10:21:06;23.70;47.70
11079;DHT22;5592;49.234;7.268;2023-04-15T10:23:32;24.20;48.00
11079;DHT22;5592;49.234;7.268;2023-04-15T10:25:58;24.10;44.30
11079;DHT22;5592;49.234;7.268;2023-04-15T10:28:25;22.70;44.50
11079;DHT22;5592;49.234;7.268;2023-04-15T10:30:51;22.20;45.10
11079;DHT22;5592;49.234;7.268;2023-04-15T10:33:21;22.30;47.00
11079;DHT22;5592;49.234;7.268;2023-04-15T10:35:48;22.40;42.10
11079;DHT22;5592;49.234;7.268;2023-04-15T10:38:38;22.30;44.30
11079;DHT22;5592;49.234;7.268;2023-04-15T10:41:17;23.30;47.40
11079;DHT22;5592;49.234;7.268;2023-04-15T10:43:59;23.70;48.90
11079;DHT22;5592;49.234;7.268;2023-04-15T10:46:37;24.20;42.60
11079;DHT22;5592;49.234;7.268;2023-04-15T10:49:23;24.10;42.40
11079;DHT22;5592;49.234;7.268;2023-04-15T10:51:57;24.20;41.20
11079;DHT22;5592;49.234;7.268;2023-04-15T10:56:51;23.40;43.90
11079;DHT22;5592;49.234;7.268;2023-04-15T10:59:17;22.90;47.80
11079;DHT22;5592;49.234;7.268;2023-04-15T11:01:50;22.60;46.90
11079;DHT22;5592;49.234;7.268;2023-04-15T11:04:58;22.60;45.20
11079;DHT22;5592;49.234;7.268;2023-04-15T11:07:40;22.20;46.30
11079;DHT22;5592;49.234;7.268;2023-04-15T11:12:39;21.80;50.40
11079;DHT22;5592;49.234;7.268;2023-04-15T11:17:52;22.30;47.20
11079;DHT22;5592;49.234;7.268;2023-04-15T11:20:17;22.30;47.20
11079;DHT22;5592;49.234;7.268;2023-04-15T11:22:51;22.40;47.20
11079;DHT22;5592;49.234;7.268;2023-04-15T11:25:27;22.30;49.70
11079;DHT22;5592;49.234;7.268;2023-04-15T11:27:54;21.60;49.70
11079;DHT22;5592;49.234;7.268;2023-04-15T11:30:25;21.20;48.90
11079;DHT22;5592;49.234;7.268;2023-04-15T11:32:52;21.10;50.90
11079;DHT22;5592;49.234;7.268;2023-04-15T11:35:18;20.90;53.50
11079;DHT22;5592;49.234;7.268;2023-04-15T11:37:45;20.20;51.10
11079;DHT22;5592;49.234;7.268;2023-04-15T11:40:11;19.80;49.90
11079;DHT22;5592;49.234;7.268;2023-04-15T11:42:37;19.70;51.80
11079;DHT22;5592;49.234;7.268;2023-04-15T11:45:13;19.50;53.10
11079;DHT22;5592;49.234;7.268;2023-04-15T11:47:41;19.80;52.90
11079;DHT22;5592;49.234;7.268;2023-04-15T11:52:55;19.90;49.30
11079;DHT22;5592;49.234;7.268;2023-04-15T11:55:22;20.10;49.00
11079;DHT22;5592;49.234;7.268;2023-04-15T11:57:50;20.10;49.10
11079;DHT22;5592;49.234;7.268;2023-04-15T12:00:16;20.50;48.70
11079;DHT22;5592;49.234;7.268;2023-04-15T12:02:42;20.50;51.30
11079;DHT22;5592;49.234;7.268;2023-04-15T12:05:08;20.70;47.90
11079;DHT22;5592;49.234;7.268;2023-04-15T12:07:59;20.70;47.80
11079;DHT22;5592;49.234;7.268;2023-04-15T12:10:25;20.80;51.10
11079;DHT22;5592;49.234;7.268;2023-04-15T12:12:51;20.80;52.90
11079;DHT22;5592;49.234;7.268;2023-04-15T12:15:20;20.40;49.30
11079;DHT22;5592;49.234;7.268;2023-04-15T12:17:46;20.30;52.20
11079;DHT22;5592;49.234;7.268;2023-04-15T12:20:11;19.60;51.90
11079;DHT22;5592;49.234;7.268;2023-04-15T12:22:37;19.00;50.20
11079;DHT22;5592;49.234;7.268;2023-04-15T12:25:03;18.40;51.80
11079;DHT22;5592;49.234;7.268;2023-04-15T12:27:30;18.30;53.30
11079;DHT22;5592;49.234;7.268;2023-04-15T12:30:06;18.30;52.00
11079;DHT22;5592;49.234;7.268;2023-04-15T12:32:34;18.40;52.60
11079;DHT22;5592;49.234;7.268;2023-04-15T12:35:00;18.50;52.80
11079;DHT22;5592;49.234;7.268;2023-04-15T12:37:26;18.50;50.60
11079;DHT22;5592;49.234;7.268;2023-04-15T12:39:51;18.70;52.40
11079;DHT22;5592;49.234;7.268;2023-04-15T12:42:18;19.00;51.70
11079;DHT22;5592;49.234;7.268;2023-04-15T12:44:45;19.50;51.00
11079;DHT22;5592;49.234;7.268;2023-04-15T12:47:11;19.40;49.00
11079;DHT22;5592;49.234;7.268;2023-04-15T12:49:37;19.00;49.80
11079;DHT22;5592;49.234;7.268;2023-04-15T12:52:03;18.80;50.70
11079;DHT22;5592;49.234;7.268;2023-04-15T12:54:30;18.90;53.60
11079;DHT22;5592;49.234;7.268;2023-04-15T12:56:56;18.70;52.90
11079;DHT22;5592;49.234;7.268;2023-04-15T12:59:22;18.40;51.20
11079;DHT22;5592;49.234;7.268;2023-04-15T13:01:50;18.20;52.10
11079;DHT22;5592;49.234;7.268;2023-04-15T13:04:16;18.00;52.80
11079;DHT22;5592;49.234;7.268;2023-04-15T13:06:42;17.70;51.80
11079;DHT22;5592;49.234;7.268;2023-04-15T13:09:08;17.40;51.40
11079;DHT22;5592;49.234;7.268;2023-04-15T13:11:34;17.20;52.40
11079;DHT22;5592;49.234;7.268;2023-04-15T13:14:01;17.20;50.80
11079;DHT22;5592;49.234;7.268;2023-04-15T13:16:26;17.40;52.00
11079;DHT22;5592;49.234;7.268;2023-04-15T13:18:52;17.40;51.10
11079;DHT22;5592;49.234;7.268;2023-04-15T13:21:18;17.30;52.00
11079;DHT22;5592;49.234;7.268;2023-04-15T13:23:44;17.10;50.70
11079;DHT22;5592;49.234;7.268;2023-04-15T13:26:09;17.10;53.00
11079;DHT22;5592;49.234;7.268;2023-04-15T13:28:35;17.20;49.40
11079;DHT22;5592;49.234;7.268;2023-04-15T13:31:01;17.20;51.00
11079;DHT22;5592;49.234;7.268;2023-04-15T13:33:27;17.40;52.60
11079;DHT22;5592;49.234;7.268;2023-04-15T13:35:52;17.60;54.50
11079;DHT22;5592;49.234;7.268;2023-04-15T13:38:18;17.60;51.40
11079;DHT22;5592;49.234;7.268;2023-04-15T13:40:44;17.40;51.40
11079;DHT22;5592;49.234;7.268;2023-04-15T13:43:09;17.20;51.40
11079;DHT22;5592;49.234;7.268;2023-04-15T13:45:35;17.20;54.40
11079;DHT22;5592;49.234;7.268;2023-04-15T13:48:01;17.20;53.00
11079;DHT22;5592;49.234;7.268;2023-04-15T13:50:27;17.10;50.40
11079;DHT22;5592;49.234;7.268;2023-04-15T13:52:53;17.10;53.70
11079;DHT22;5592;49.234;7.268;2023-04-15T13:55:18;17.20;53.30
11079;DHT22;5592;49.234;7.268;2023-04-15T13:57:44;17.30;51.60
11079;DHT22;5592;49.234;7.268;2023-04-15T14:00:10;17.30;53.80
11079;DHT22;5592;49.234;7.268;2023-04-15T14:02:36;17.30;54.80
11079;DHT22;5592;49.234;7.268;2023-04-15T14:05:02;17.20;53.90
11079;DHT22;5592;49.234;7.268;2023-04-15T14:07:28;17.10;53.40
11079;DHT22;5592;49.234;7.268;2023-04-15T14:09:55;16.80;54.10
11079;DHT22;5592;49.234;7.268;2023-04-15T14:12:20;16.70;54.00
11079;DHT22;5592;49.234;7.268;2023-04-15T14:14:46;16.60;56.30
11079;DHT22;5592;49.234;7.268;2023-04-15T14:17:12;16.40;55.80
11079;DHT22;5592;49.234;7.268;2023-04-15T14:19:37;16.50;56.10
11079;DHT22;5592;49.234;7.268;2023-04-15T14:22:03;16.60;55.40
11079;DHT22;5592;49.234;7.268;2023-04-15T14:24:28;16.70;55.10
11079;DHT22;5592;49.234;7.268;2023-04-15T14:26:54;16.70;55.60
11079;DHT22;5592;49.234;7.268;2023-04-15T14:29:21;17.00;57.40
11079;DHT22;5592;49.234;7.268;2023-04-15T14:31:46;17.00;56.40
11079;DHT22;5592;49.234;7.268;2023-04-15T14:34:14;17.10;59.80
11079;DHT22;5592;49.234;7.268;2023-04-15T14:36:40;17.30;59.70
11079;DHT22;5592;49.234;7.268;2023-04-15T14:39:06;17.50;55.30
11079;DHT22;5592;49.234;7.268;2023-04-15T14:41:33;17.60;54.60
11079;DHT22;5592;49.234;7.268;2023-04-15T14:43:58;17.50;56.30
11079;DHT22;5592;49.234;7.268;2023-04-15T14:46:25;17.30;59.20
11079;DHT22;5592;49.234;7.268;2023-04-15T14:48:50;17.10;58.20
11079;DHT22;5592;49.234;7.268;2023-04-15T14:51:18;16.90;56.90
11079;DHT22;5592;49.234;7.268;2023-04-15T14:53:44;16.80;57.30
11079;DHT22;5592;49.234;7.268;2023-04-15T14:56:10;16.60;55.80
11079;DHT22;5592;49.234;7.268;2023-04-15T14:58:36;16.40;55.90
11079;DHT22;5592;49.234;7.268;2023-04-15T15:01:03;16.20;55.70
11079;DHT22;5592;49.234;7.268;2023-04-15T15:03:29;16.30;56.30
11079;DHT22;5592;49.234;7.268;2023-04-15T15:05:54;16.40;53.70
11079;DHT22;5592;49.234;7.268;2023-04-15T15:08:21;16.30;56.40
11079;DHT22;5592;49.234;7.268;2023-04-15T15:10:47;16.40;53.60
11079;DHT22;5592;49.234;7.268;2023-04-15T15:13:13;16.20;55.10
11079;DHT22;5592;49.234;7.268;2023-04-15T15:15:38;16.30;55.30
11079;DHT22;5592;49.234;7.268;2023-04-15T15:18:04;16.20;55.30
11079;DHT22;5592;49.234;7.268;2023-04-15T15:20:30;15.90;58.20
11079;DHT22;5592;49.234;7.268;2023-04-15T15:22:56;15.80;56.90
11079;DHT22;5592;49.234;7.268;2023-04-15T15:25:21;15.70;56.20
11079;DHT22;5592;49.234;7.268;2023-04-15T15:27:47;15.60;57.30
11079;DHT22;5592;49.234;7.268;2023-04-15T15:30:13;15.50;59.30
11079;DHT22;5592;49.234;7.268;2023-04-15T15:32:40;15.20;59.70
11079;DHT22;5592;49.234;7.268;2023-04-15T15:35:06;15.00;60.30
11079;DHT22;5592;49.234;7.268;2023-04-15T15:37:31;14.90;62.50
11079;DHT22;5592;49.234;7.268;2023-04-15T15:39:57;15.00;61.70
11079;DHT22;5592;49.234;7.268;2023-04-15T15:42:24;15.00;61.80
11079;DHT22;5592;49.234;7.268;2023-04-15T15:44:49;15.10;63.00
11079;DHT22;5592;49.234;7.268;2023-04-15T15:47:17;15.10;65.10
11079;DHT22;5592;49.234;7.268;2023-04-15T15:49:43;15.00;64.50
11079;DHT22;5592;49.234;7.268;2023-04-15T15:52:09;15.00;66.50
11079;DHT22;5592;49.234;7.268;2023-04-15T15:54:35;15.00;64.70
11079;DHT22;5592;49.234;7.268;2023-04-15T15:57:02;15.10;67.00